Time;durP1;ratioP1;P1;durP2;ratioP2;P2;SDS_P1;SDS_P2;PMS_P1;PMS_P2;Temp;Humidity;BMP_temperature;BMP_pressure;BME280_temperature;BME280_humidity;BME280_pressure;Samples;Min_cycle;Max_cycle;Signal;HPM_P1;HPM_P2
2023/09/06 00:02:07;;;;;;;1.25;1.15;;;;;;;22.03;62.85;101830.44;4991627;28;20041;-54
2023/09/06 00:04:33;;;;;;;1.10;1.00;;;;;;;22.02;63.20;101834.13;4991397;28;20534;-54
2023/09/06 00:06:59;;;;;;;1.08;1.05;;;;;;;22.03;63.03;101838.56;4990807;28;20040;-54
2023/09/06 00:09:25;;;;;;;1.10;1.05;;;;;;;22.03;63.29;101827.72;4990498;28;20062;-53
2023/09/06 00:11:50;;;;;;;1.77;1.20;;;;;;;22.02;63.19;101834.13;4990209;28;20066;-54
2023/09/06 00:14:16;;;;;;;1.30;1.20;;;;;;;22.01;62.75;101827.03;4995411;28;20523;-54
2023/09/06 00:16:46;;;;;;;1.33;1.23;;;;;;;22.02;63.01;101823.28;4989350;28;20058;-54
2023/09/06 00:19:12;;;;;;;1.23;1.10;;;;;;;22.01;62.82;101825.16;4989687;28;20444;-54
2023/09/06 00:21:40;;;;;;;1.50;1.40;;;;;;;22.01;62.92;101821.59;4989643;28;20035;-54
2023/09/06 00:24:06;;;;;;;1.48;1.30;;;;;;;22.01;63.33;101818.88;4990471;28;20436;-54
2023/09/06 00:26:32;;;;;;;1.40;1.30;;;;;;;22.00;63.27;101820.72;4990827;28;20035;-54
2023/09/06 00:28:57;;;;;;;1.27;1.10;;;;;;;22.01;63.26;101818.88;4991270;28;20498;-53
2023/09/06 00:31:23;;;;;;;1.33;1.23;;;;;;;21.99;63.30;101810.88;4990749;28;20038;-54
2023/09/06 00:33:48;;;;;;;1.50;1.30;;;;;;;22.01;63.26;101813.47;4989863;28;20125;-53
2023/09/06 00:36:14;;;;;;;1.27;1.17;;;;;;;22.01;63.11;101813.47;4989884;28;20038;-54
2023/09/06 00:38:39;;;;;;;1.20;1.00;;;;;;;22.00;62.87;101818.00;4989775;28;20458;-54
2023/09/06 00:41:04;;;;;;;1.80;1.58;;;;;;;22.00;63.02;101819.88;4990256;28;20062;-53
2023/09/06 00:43:30;;;;;;;1.30;1.20;;;;;;;22.00;62.76;101817.16;4993938;28;20093;-52
2023/09/06 00:45:55;;;;;;;1.40;1.30;;;;;;;21.98;63.25;101809.16;4990060;28;20385;-53
2023/09/06 00:48:29;;;;;;;1.63;1.20;;;;;;;21.98;62.75;101817.31;4990853;28;20476;-54
2023/09/06 00:50:56;;;;;;;1.42;1.33;;;;;;;21.99;62.69;101820.88;4990328;28;20034;-54
2023/09/06 00:53:24;;;;;;;1.45;1.35;;;;;;;21.98;62.72;101816.47;4989945;28;20388;-54
2023/09/06 00:55:50;;;;;;;1.40;1.30;;;;;;;21.99;63.07;101826.28;4989453;28;20087;-53
2023/09/06 00:58:17;;;;;;;1.30;1.20;;;;;;;21.98;62.66;101819.16;4989532;28;20038;-54
2023/09/06 01:00:47;;;;;;;1.40;1.30;;;;;;;21.97;62.99;101829.16;4988701;28;20499;-53
2023/09/06 01:03:13;;;;;;;1.20;1.10;;;;;;;21.97;62.83;101834.59;4989689;28;20088;-54
2023/09/06 01:05:51;;;;;;;1.38;1.27;;;;;;;21.97;62.81;101831.88;4990109;28;20465;-54
2023/09/06 01:08:24;;;;;;;1.40;1.30;;;;;;;21.96;62.79;101832.03;4990654;28;20077;-54
2023/09/06 01:10:50;;;;;;;1.60;1.50;;;;;;;21.98;62.55;101835.44;4990077;28;20381;-54
2023/09/06 01:13:15;;;;;;;1.50;1.40;;;;;;;21.97;62.74;101839.13;4990058;28;20038;-53
2023/09/06 01:15:44;;;;;;;2.58;1.38;;;;;;;21.97;62.73;101839.13;4989208;28;20034;-54
2023/09/06 01:18:11;;;;;;;1.40;1.30;;;;;;;21.96;62.60;101840.16;4989074;28;20358;-54
2023/09/06 01:20:42;;;;;;;1.75;1.27;;;;;;;21.96;62.72;101837.44;4989349;28;20085;-54
2023/09/06 01:23:33;;;;;;;2.33;1.20;;;;;;;21.98;62.68;101840.88;4989537;28;20109;-54
2023/09/06 01:25:59;;;;;;;1.63;1.40;;;;;;;21.95;62.61;101822.16;4988110;28;20491;-53
2023/09/06 01:28:27;;;;;;;1.70;1.60;;;;;;;21.95;62.69;101831.19;4989601;28;20489;-54
2023/09/06 01:30:55;;;;;;;1.40;1.23;;;;;;;21.94;63.09;101823.19;4989127;28;20038;-54
2023/09/06 01:33:22;;;;;;;1.77;1.40;;;;;;;21.95;62.99;101833.00;4988238;28;20049;-54
2023/09/06 01:35:48;;;;;;;1.27;1.15;;;;;;;21.94;62.69;101834.03;4988149;28;20042;-54
2023/09/06 01:38:15;;;;;;;1.25;1.15;;;;;;;21.94;62.62;101839.47;4988294;28;20069;-54
2023/09/06 01:40:41;;;;;;;1.67;1.58;;;;;;;21.94;62.40;101839.47;4988480;28;20051;-54
2023/09/06 01:43:08;;;;;;;1.23;1.13;;;;;;;21.94;62.61;101831.31;4988838;28;20030;-54
2023/09/06 01:45:37;;;;;;;1.35;1.05;;;;;;;21.93;62.63;101841.28;4988696;28;20035;-54
2023/09/06 01:48:05;;;;;;;1.67;1.58;;;;;;;21.93;62.82;101833.16;4989636;28;20030;-54
2023/09/06 01:50:30;;;;;;;1.40;1.30;;;;;;;21.93;62.55;101835.03;4988854;28;20052;-54
2023/09/06 01:52:57;;;;;;;1.42;1.33;;;;;;;21.92;62.85;101836.03;4988597;28;20034;-53
2023/09/06 01:55:22;;;;;;;1.30;1.20;;;;;;;21.92;62.90;101833.34;4988746;28;20031;-54
2023/09/06 01:57:47;;;;;;;1.63;1.33;;;;;;;21.92;62.93;101836.88;4988324;28;20170;-53
2023/09/06 02:00:24;;;;;;;1.30;1.20;;;;;;;21.91;62.46;101835.16;4988740;28;20498;-54
2023/09/06 02:02:50;;;;;;;2.47;1.30;;;;;;;21.91;62.56;101829.75;4985857;28;20039;-53
2023/09/06 02:05:15;;;;;;;1.70;1.58;;;;;;;21.92;62.97;101836.03;4989701;28;20023;-53
2023/09/06 02:07:42;;;;;;;1.20;1.10;;;;;;;21.91;62.41;101831.59;4995233;28;20092;-53
2023/09/06 02:10:08;;;;;;;1.15;1.10;;;;;;;21.92;62.93;101838.75;4988832;28;20030;-54
2023/09/06 02:12:34;;;;;;;1.40;1.30;;;;;;;21.91;62.40;101837.88;4988422;28;20037;-53
2023/09/06 02:14:59;;;;;;;1.20;1.10;;;;;;;21.91;62.60;101839.75;4988082;28;20385;-54
2023/09/06 02:17:25;;;;;;;1.00;1.00;;;;;;;21.92;62.85;101841.47;4987679;28;20058;-54
2023/09/06 02:19:50;;;;;;;1.23;1.13;;;;;;;21.90;62.86;101843.47;4987550;28;20088;-54
2023/09/06 02:22:16;;;;;;;1.33;1.23;;;;;;;21.90;62.47;101841.59;4986754;28;20030;-54
2023/09/06 02:24:42;;;;;;;1.15;1.05;;;;;;;21.90;62.84;101838.03;4987343;28;20058;-53
2023/09/06 02:27:10;;;;;;;1.33;1.23;;;;;;;21.90;62.91;101838.91;4988036;28;20094;-53
2023/09/06 02:29:35;;;;;;;1.10;1.00;;;;;;;21.89;62.33;101833.63;4988382;28;20126;-54
2023/09/06 02:32:00;;;;;;;1.25;1.15;;;;;;;21.90;62.53;101836.19;4988773;28;20129;-54
2023/09/06 02:34:26;;;;;;;1.33;1.23;;;;;;;21.90;62.35;101835.34;4988613;28;20039;-54
2023/09/06 02:36:51;;;;;;;1.45;1.15;;;;;;;21.89;62.34;101836.31;4988524;28;20041;-53
2023/09/06 02:39:18;;;;;;;1.40;1.30;;;;;;;21.90;62.55;101838.03;4988035;28;20484;-53
2023/09/06 02:41:43;;;;;;;1.40;1.27;;;;;;;21.88;62.72;101837.34;4987709;28;20042;-54
2023/09/06 02:44:08;;;;;;;1.35;1.20;;;;;;;21.88;62.35;101840.06;4987595;28;20027;-54
2023/09/06 02:46:34;;;;;;;1.40;1.30;;;;;;;21.88;62.46;101845.47;4987346;28;20041;-54
2023/09/06 02:49:11;;;;;;;1.02;1.00;;;;;;;21.87;62.72;101847.31;4987104;28;20034;-54
2023/09/06 02:51:37;;;;;;;1.23;1.13;;;;;;;21.86;62.45;101843.75;4988793;28;20086;-54
2023/09/06 02:54:02;;;;;;;1.25;1.10;;;;;;;21.86;62.41;101843.75;4988204;28;20097;-54
2023/09/06 02:56:28;;;;;;;1.40;1.30;;;;;;;21.86;62.48;101849.19;4987905;28;20030;-53
2023/09/06 02:58:53;;;;;;;1.25;1.15;;;;;;;21.86;62.31;101845.63;4987673;28;20040;-54
2023/09/06 03:01:22;;;;;;;1.05;0.93;;;;;;;21.88;62.22;101845.47;4987156;28;20030;-54
2023/09/06 03:03:53;;;;;;;1.40;1.30;;;;;;;21.86;62.76;101849.19;4986955;28;20030;-54
2023/09/06 03:06:18;;;;;;;1.23;1.13;;;;;;;21.86;62.29;101849.19;4986599;28;20061;-54
2023/09/06 03:08:45;;;;;;;1.30;1.20;;;;;;;21.85;62.42;101852.88;4987669;28;20469;-54
2023/09/06 03:11:14;;;;;;;1.15;1.08;;;;;;;21.85;62.82;101852.88;4987983;28;20477;-54
2023/09/06 03:13:42;;;;;;;1.33;1.23;;;;;;;21.85;62.24;101852.03;4987664;28;20035;-54
2023/09/06 03:16:13;;;;;;;2.22;1.20;;;;;;;21.84;62.68;101848.47;4988056;28;20057;-54
2023/09/06 03:18:39;;;;;;;1.20;1.10;;;;;;;21.84;62.27;101853.91;4988058;28;20046;-54
2023/09/06 03:21:05;;;;;;;1.75;1.23;;;;;;;21.84;62.27;101844.91;4987658;28;20088;-54
2023/09/06 03:23:32;;;;;;;1.52;1.42;;;;;;;21.84;62.02;101851.19;4986771;28;20038;-54
2023/09/06 03:25:58;;;;;;;1.65;1.42;;;;;;;21.84;62.12;101851.19;4986642;28;20358;-54
2023/09/06 03:28:25;;;;;;;1.35;1.25;;;;;;;21.83;61.90;101849.47;4986489;28;20138;-53
2023/09/06 03:30:58;;;;;;;1.13;1.02;;;;;;;21.83;62.22;101852.16;4986355;28;20117;-54
2023/09/06 03:33:24;;;;;;;1.50;1.40;;;;;;;21.84;62.59;101850.34;4987198;28;20492;-54
2023/09/06 03:35:50;;;;;;;1.52;1.42;;;;;;;21.82;62.67;101858.63;4987119;28;20035;-54
2023/09/06 03:38:15;;;;;;;1.80;1.50;;;;;;;21.82;62.34;101861.31;4987732;28;20031;-54
2023/09/06 03:40:42;;;;;;;1.77;1.38;;;;;;;21.82;61.91;101858.63;4987171;28;20065;-52
2023/09/06 03:43:19;;;;;;;1.52;1.40;;;;;;;21.82;61.87;101855.91;4986900;28;20057;-53
2023/09/06 03:45:51;;;;;;;1.40;1.30;;;;;;;21.81;62.02;101862.31;4986695;28;20149;-53
2023/09/06 03:48:23;;;;;;;1.58;1.48;;;;;;;21.81;62.24;101851.47;4985666;28;20034;-54
2023/09/06 03:50:57;;;;;;;1.30;1.20;;;;;;;21.82;62.20;101857.75;4986988;28;20105;-52
2023/09/06 03:53:25;;;;;;;1.35;1.15;;;;;;;21.80;62.47;101860.63;4987853;28;20121;-53
2023/09/06 03:55:57;;;;;;;1.40;1.30;;;;;;;21.81;61.73;101853.34;4987485;28;20037;-54
2023/09/06 03:58:23;;;;;;;1.42;1.30;;;;;;;21.81;62.11;101866.88;4986907;28;20121;-53
2023/09/06 04:00:51;;;;;;;1.83;1.65;;;;;;;21.81;62.27;101862.31;4986654;28;20036;-54
2023/09/06 04:03:18;;;;;;;1.90;1.70;;;;;;;21.81;62.19;101861.47;4986665;28;20050;-54
2023/09/06 04:05:45;;;;;;;1.55;1.45;;;;;;;21.79;62.05;101861.59;4985613;28;20031;-54
2023/09/06 04:08:17;;;;;;;1.48;1.38;;;;;;;21.81;61.48;101867.72;4986137;28;20034;-54
2023/09/06 04:10:44;;;;;;;0.95;0.95;;;;;;;21.80;61.98;101867.88;4988185;28;20045;-54
2023/09/06 04:13:10;;;;;;;1.50;1.40;;;;;;;21.80;62.12;101867.88;4987467;28;20058;-53
2023/09/06 04:15:37;;;;;;;1.55;1.45;;;;;;;21.79;62.00;101867.03;4985212;28;20065;-54
2023/09/06 04:18:04;;;;;;;1.40;1.30;;;;;;;21.79;62.06;101871.59;4986462;28;20109;-54
2023/09/06 04:20:37;;;;;;;1.40;1.30;;;;;;;21.80;62.09;101870.59;4986463;28;20039;-54
2023/09/06 04:23:07;;;;;;;1.90;1.52;;;;;;;21.78;62.15;101878.88;4985549;28;20113;-53
2023/09/06 04:25:43;;;;;;;1.98;1.60;;;;;;;21.78;61.75;101878.88;4985792;28;20128;-53
2023/09/06 04:28:10;;;;;;;1.60;1.50;;;;;;;21.77;61.57;101871.75;4985899;28;20062;-54
2023/09/06 04:30:37;;;;;;;1.50;1.40;;;;;;;21.77;61.26;101882.59;4987692;28;20470;-53
2023/09/06 04:33:04;;;;;;;1.65;1.52;;;;;;;21.78;61.72;101883.44;4987366;28;20030;-54
2023/09/06 04:35:43;;;;;;;1.40;1.30;;;;;;;21.78;61.47;101878.88;4987212;28;20049;-53
2023/09/06 04:38:14;;;;;;;1.17;1.08;;;;;;;21.77;61.71;101877.16;4986570;28;20109;-54
2023/09/06 04:40:42;;;;;;;1.63;1.53;;;;;;;21.77;61.62;101882.59;4986975;28;20441;-54
2023/09/06 04:43:08;;;;;;;1.60;1.50;;;;;;;21.77;61.49;101877.16;4987265;28;20286;-53
2023/09/06 04:45:37;;;;;;;1.38;1.27;;;;;;;21.77;61.49;101889.88;4988047;28;20034;-53
2023/09/06 04:48:05;;;;;;;1.42;1.33;;;;;;;21.77;61.48;101887.16;4990876;28;20023;-52
2023/09/06 04:50:30;;;;;;;1.50;1.40;;;;;;;21.76;61.84;101883.59;4989213;28;20080;-54
2023/09/06 04:52:56;;;;;;;2.50;1.40;;;;;;;21.77;61.98;101884.44;4990031;28;20062;-54
2023/09/06 04:55:22;;;;;;;1.48;1.35;;;;;;;21.75;61.46;101884.59;4989754;28;20461;-54
2023/09/06 04:57:47;;;;;;;1.45;1.35;;;;;;;21.77;61.74;101892.59;4990045;28;20138;-54
2023/09/06 05:00:30;;;;;;;1.27;1.17;;;;;;;21.74;61.60;101891.03;4988966;28;20064;-54
2023/09/06 05:02:57;;;;;;;2.28;1.40;;;;;;;21.75;61.59;101895.44;4988773;28;20031;-54
2023/09/06 05:05:23;;;;;;;1.40;1.30;;;;;;;21.74;61.42;101887.44;4987979;28;20026;-53
2023/09/06 05:07:49;;;;;;;1.73;1.50;;;;;;;21.74;61.21;101899.16;4989819;28;20078;-53
2023/09/06 05:10:15;;;;;;;1.60;1.50;;;;;;;21.73;61.47;101892.00;4989459;28;20054;-53
2023/09/06 05:12:40;;;;;;;1.05;1.05;;;;;;;21.73;61.45;101902.88;4990669;28;20121;-54
2023/09/06 05:15:08;;;;;;;1.42;1.33;;;;;;;21.73;61.19;101905.56;4989754;28;20492;-54
2023/09/06 05:17:34;;;;;;;1.50;1.40;;;;;;;21.73;61.52;101905.56;4989559;28;20046;-54
2023/09/06 05:20:33;;;;;;;1.83;1.25;;;;;;;21.75;61.18;101910.84;4977612;28;20035;-54
2023/09/06 05:23:03;;;;;;;1.08;1.02;;;;;;;21.73;61.38;101908.28;4988688;28;20087;-54
2023/09/06 05:25:30;;;;;;;1.40;1.30;;;;;;;21.72;61.28;101919.25;4989800;28;20034;-54
2023/09/06 05:28:00;;;;;;;1.33;1.23;;;;;;;21.73;61.20;101915.56;4989124;28;20324;-54
2023/09/06 05:30:26;;;;;;;1.30;1.20;;;;;;;21.71;61.09;101918.41;4989098;28;20042;-53
2023/09/06 05:32:53;;;;;;;1.55;1.45;;;;;;;21.72;61.48;101914.69;4988458;28;20034;-54
2023/09/06 05:35:19;;;;;;;1.30;1.20;;;;;;;21.71;61.16;101921.13;4988760;28;20046;-54
2023/09/06 05:37:44;;;;;;;1.70;1.60;;;;;;;21.71;61.71;101915.72;4988216;28;20506;-53
2023/09/06 05:40:12;;;;;;;1.80;1.30;;;;;;;21.71;61.13;101921.13;4988338;28;20035;-53
2023/09/06 05:42:38;;;;;;;1.40;1.30;;;;;;;21.70;61.28;101916.69;4989118;28;20056;-54
2023/09/06 05:45:04;;;;;;;1.77;1.23;;;;;;;21.69;61.63;101920.41;4988794;28;20034;-53
2023/09/06 05:47:30;;;;;;;1.40;1.30;;;;;;;21.69;61.28;101917.72;4988536;28;20046;-53
2023/09/06 05:49:58;;;;;;;1.02;0.95;;;;;;;21.70;61.43;101913.13;4988707;28;20037;-53
2023/09/06 05:52:23;;;;;;;1.80;1.30;;;;;;;21.69;61.29;101915.00;4988903;28;20038;-53
2023/09/06 05:54:49;;;;;;;1.50;1.40;;;;;;;21.69;61.22;101923.13;4989362;28;20041;-54
2023/09/06 05:57:15;;;;;;;1.73;1.48;;;;;;;21.68;61.05;101918.69;4984279;28;20023;-54
2023/09/06 05:59:40;;;;;;;1.83;1.38;;;;;;;21.70;61.72;101929.41;4988668;28;20035;-54
2023/09/06 06:02:07;;;;;;;2.03;1.42;;;;;;;21.68;61.04;101924.13;4991534;28;20042;-54
2023/09/06 06:04:32;;;;;;;1.63;1.52;;;;;;;21.68;61.02;101929.53;4989708;28;20083;-54
2023/09/06 06:06:57;;;;;;;1.45;1.20;;;;;;;21.68;61.45;101921.41;4989967;28;20069;-54
2023/09/06 06:09:25;;;;;;;1.40;1.30;;;;;;;21.69;61.30;101930.41;4995829;28;20544;-53
2023/09/06 06:11:53;;;;;;;1.30;1.20;;;;;;;21.68;61.06;101929.53;4991088;28;20041;-54
2023/09/06 06:14:19;;;;;;;2.72;1.40;;;;;;;21.67;61.36;101935.97;4995125;28;20018;-54
2023/09/06 06:16:44;;;;;;;1.30;1.20;;;;;;;21.67;61.17;101942.25;4994293;28;20033;-54
2023/09/06 06:19:09;;;;;;;1.33;1.23;;;;;;;21.67;61.68;101938.69;4993288;28;20090;-54
2023/09/06 06:21:35;;;;;;;1.58;1.20;;;;;;;21.66;61.27;101935.09;4985620;28;20041;-53
2023/09/06 06:24:01;;;;;;;1.50;1.40;;;;;;;21.67;61.26;101941.41;4991755;28;20114;-54
2023/09/06 06:26:27;;;;;;;1.50;1.40;;;;;;;21.67;61.76;101936.81;4993990;28;20049;-54
2023/09/06 06:28:52;;;;;;;1.88;1.20;;;;;;;21.66;61.59;101942.38;4993712;28;20070;-54
2023/09/06 06:31:17;;;;;;;1.10;1.10;;;;;;;21.66;61.89;101945.09;4993742;28;20034;-53
2023/09/06 06:33:43;;;;;;;1.33;1.20;;;;;;;21.66;61.69;101945.09;4993069;28;20448;-52
2023/09/06 06:36:09;;;;;;;1.60;1.20;;;;;;;21.66;61.22;101950.50;4994527;28;20030;-52
2023/09/06 06:38:34;;;;;;;1.92;1.60;;;;;;;21.65;61.38;101946.09;4993110;28;20081;-54
2023/09/06 06:41:00;;;;;;;1.88;1.20;;;;;;;21.66;61.43;101953.22;4985557;28;20042;-54
2023/09/06 06:43:27;;;;;;;1.98;1.38;;;;;;;21.67;61.89;101946.81;4985760;28;20031;-54
2023/09/06 06:45:54;;;;;;;1.33;1.23;;;;;;;21.66;61.56;101953.22;4991829;28;20037;-54
2023/09/06 06:48:20;;;;;;;1.60;1.50;;;;;;;21.66;61.83;101961.34;4986205;28;20380;-53
2023/09/06 06:50:45;;;;;;;1.23;1.13;;;;;;;21.66;61.76;101964.06;4985750;28;20077;-54
2023/09/06 06:53:11;;;;;;;1.83;1.70;;;;;;;21.66;61.32;101962.19;4987218;28;20384;-53
2023/09/06 06:55:37;;;;;;;1.40;1.27;;;;;;;21.66;61.81;101961.34;4985497;28;20038;-54
2023/09/06 06:58:03;;;;;;;2.00;1.60;;;;;;;21.66;61.81;101962.19;4985003;28;20117;-54
2023/09/06 07:00:31;;;;;;;1.30;1.20;;;;;;;21.65;61.46;101960.50;4986156;28;20045;-54
2023/09/06 07:02:57;;;;;;;1.40;1.30;;;;;;;21.65;61.33;101965.94;4986295;28;20066;-54
2023/09/06 07:05:22;;;;;;;1.27;1.23;;;;;;;21.66;61.65;101961.34;4985750;28;20061;-54
2023/09/06 07:07:48;;;;;;;1.70;1.60;;;;;;;21.66;61.43;101964.06;4984187;28;20023;-54
2023/09/06 07:10:14;;;;;;;1.52;1.30;;;;;;;21.67;61.75;101971.22;4985096;28;20121;-54
2023/09/06 07:12:40;;;;;;;1.70;1.35;;;;;;;21.66;61.83;101961.34;4986312;28;20473;-53
2023/09/06 07:15:06;;;;;;;1.40;1.30;;;;;;;21.66;61.74;101955.94;4986497;28;20035;-53
2023/09/06 07:17:32;;;;;;;1.30;1.20;;;;;;;21.67;61.31;101957.66;4987237;28;20436;-52
2023/09/06 07:19:58;;;;;;;1.48;1.27;;;;;;;21.66;61.66;101961.34;4987355;28;20027;-54
2023/09/06 07:22:24;;;;;;;1.33;1.23;;;;;;;21.66;61.71;101953.22;4988384;28;20030;-54
2023/09/06 07:24:50;;;;;;;1.38;1.27;;;;;;;21.66;61.16;101961.34;4986835;28;20038;-54
2023/09/06 07:27:15;;;;;;;1.48;1.27;;;;;;;21.66;61.47;101959.50;4985898;28;20455;-54
2023/09/06 07:29:40;;;;;;;2.75;1.48;;;;;;;21.67;61.40;101960.38;4985773;28;20550;-54
2023/09/06 07:32:06;;;;;;;1.40;1.30;;;;;;;21.66;61.47;101956.78;4985446;28;20034;-53
2023/09/06 07:34:32;;;;;;;1.48;1.38;;;;;;;21.67;61.21;101958.50;4987905;28;20034;-54
2023/09/06 07:36:57;;;;;;;1.55;1.45;;;;;;;21.66;61.25;101962.19;4985109;28;20041;-53
2023/09/06 07:39:23;;;;;;;1.42;1.33;;;;;;;21.66;61.60;101961.34;4986641;28;20038;-54
2023/09/06 07:41:50;;;;;;;1.30;1.20;;;;;;;21.65;61.18;101963.22;4987086;28;20034;-54
2023/09/06 07:44:17;;;;;;;1.30;1.20;;;;;;;21.65;61.37;101959.66;4986849;28;20039;-54
2023/09/06 07:46:48;;;;;;;1.80;1.50;;;;;;;21.65;61.37;101965.94;4987666;28;20121;-53
2023/09/06 07:49:16;;;;;;;1.00;1.00;;;;;;;21.67;61.31;101966.63;4987289;28;20049;-54
2023/09/06 07:51:42;;;;;;;1.50;1.40;;;;;;;21.66;61.24;101961.34;4987426;28;20065;-53
2023/09/06 07:54:07;;;;;;;1.42;1.30;;;;;;;21.66;61.56;101970.34;4985620;28;20073;-53
2023/09/06 07:56:33;;;;;;;1.25;1.15;;;;;;;21.67;61.39;101963.94;4986074;28;20034;-54
2023/09/06 07:58:58;;;;;;;1.40;1.30;;;;;;;21.66;61.69;101967.63;4986706;28;20049;-54
2023/09/06 08:01:23;;;;;;;1.38;1.27;;;;;;;21.67;61.74;101971.22;4985597;28;20034;-54
2023/09/06 08:03:49;;;;;;;1.60;1.48;;;;;;;21.67;61.61;101973.94;4983506;28;20030;-53
2023/09/06 08:06:15;;;;;;;1.58;1.30;;;;;;;21.66;61.76;101969.50;4984140;28;20376;-54
2023/09/06 08:08:40;;;;;;;1.33;1.23;;;;;;;21.66;61.38;101967.63;4985167;28;20125;-54
2023/09/06 08:11:05;;;;;;;1.42;1.33;;;;;;;21.67;61.55;101974.78;4985407;28;20045;-52
2023/09/06 08:13:31;;;;;;;1.20;1.13;;;;;;;21.66;61.69;101973.03;4990869;28;20085;-54
2023/09/06 08:15:57;;;;;;;1.67;1.45;;;;;;;21.66;61.39;101978.47;4988119;28;20473;-54
2023/09/06 08:18:22;;;;;;;1.40;1.30;;;;;;;21.67;61.39;101979.34;4982843;28;20091;-54
2023/09/06 08:20:47;;;;;;;1.40;1.30;;;;;;;21.67;61.45;101979.34;4991472;28;20038;-54
2023/09/06 08:23:13;;;;;;;1.20;1.10;;;;;;;21.67;61.84;101982.06;4989211;28;20030;-52
2023/09/06 08:25:38;;;;;;;1.50;1.40;;;;;;;21.67;61.48;101976.63;4989239;28;20511;-54
2023/09/06 08:28:04;;;;;;;1.45;1.35;;;;;;;21.67;61.44;101974.78;4989442;28;20539;-53
2023/09/06 08:30:29;;;;;;;1.40;1.30;;;;;;;21.66;61.27;101974.91;4988617;28;20045;-54
2023/09/06 08:32:55;;;;;;;1.27;1.17;;;;;;;21.68;61.45;101975.63;4991646;28;20106;-54
2023/09/06 08:35:23;;;;;;;1.17;1.08;;;;;;;21.67;61.65;101972.06;4988165;28;20039;-53
2023/09/06 08:37:48;;;;;;;1.58;1.10;;;;;;;21.69;61.82;101971.06;4988191;28;20049;-54
2023/09/06 08:40:15;;;;;;;1.10;1.10;;;;;;;21.69;61.83;101973.78;4987446;28;20034;-54
2023/09/06 08:42:44;;;;;;;1.83;1.60;;;;;;;21.66;61.92;101973.03;4993750;28;20026;-54
2023/09/06 08:45:09;;;;;;;1.40;1.30;;;;;;;21.67;61.48;101973.94;4989229;28;20114;-54
2023/09/06 08:47:39;;;;;;;1.48;1.38;;;;;;;21.68;61.38;101967.50;4988600;28;20070;-53
2023/09/06 08:50:09;;;;;;;1.00;1.00;;;;;;;21.69;61.66;101973.78;4989475;28;20389;-54
2023/09/06 08:52:38;;;;;;;1.40;1.30;;;;;;;21.68;62.00;101972.91;4989456;28;20030;-53
2023/09/06 08:55:05;;;;;;;1.35;1.25;;;;;;;21.67;61.74;101968.50;4988710;28;20371;-53
2023/09/06 08:57:32;;;;;;;1.08;1.08;;;;;;;21.69;61.67;101974.63;4989585;28;20469;-54
2023/09/06 08:59:58;;;;;;;1.50;1.40;;;;;;;21.69;61.57;101976.50;4989838;28;20042;-54
2023/09/06 09:02:24;;;;;;;1.20;1.10;;;;;;;21.69;61.98;101969.22;4989461;28;20037;-54
2023/09/06 09:04:49;;;;;;;1.30;1.20;;;;;;;21.70;61.96;101970.91;4988763;28;20031;-54
2023/09/06 09:07:18;;;;;;;1.80;1.20;;;;;;;21.69;61.91;101969.22;4989516;28;20129;-53
2023/09/06 09:10:09;;;;;;;3.40;1.50;;;;;;;21.72;61.96;101968.91;4989964;28;20034;-54
2023/09/06 09:12:37;;;;;;;1.40;1.30;;;;;;;21.71;61.50;101974.50;4991406;28;20031;-54
2023/09/06 09:15:04;;;;;;;1.50;1.40;;;;;;;21.70;61.47;101976.31;4988703;28;20034;-54
2023/09/06 09:17:30;;;;;;;1.45;1.10;;;;;;;21.70;61.94;101976.31;4991453;28;20034;-52
2023/09/06 09:19:58;;;;;;;1.38;1.27;;;;;;;21.70;61.76;101976.31;4988751;28;20500;-53
2023/09/06 09:22:34;;;;;;;1.25;1.10;;;;;;;21.72;61.77;101976.19;4988732;28;20152;-54
2023/09/06 09:25:10;;;;;;;1.33;1.10;;;;;;;21.71;61.52;101978.06;4988778;28;20031;-53
2023/09/06 09:27:37;;;;;;;2.03;1.38;;;;;;;21.71;61.55;101967.22;4988713;28;20050;-54
2023/09/06 09:30:07;;;;;;;1.58;1.48;;;;;;;21.72;61.74;101973.47;4988024;28;20100;-54
2023/09/06 09:32:32;;;;;;;2.00;1.50;;;;;;;21.72;61.99;101977.03;4984667;28;20061;-53
2023/09/06 09:34:58;;;;;;;3.03;1.40;;;;;;;21.74;62.08;101968.78;4988306;28;20492;-53
2023/09/06 09:37:24;;;;;;;1.63;1.52;;;;;;;21.73;62.10;101973.34;4989677;28;20037;-54
2023/09/06 09:39:49;;;;;;;1.20;1.13;;;;;;;21.74;61.93;101975.06;4990426;28;20030;-54
2023/09/06 09:42:15;;;;;;;1.60;1.42;;;;;;;21.74;61.66;101969.66;4990387;28;20031;-54
2023/09/06 09:44:41;;;;;;;1.80;1.30;;;;;;;21.74;62.01;101969.66;4990231;28;20025;-54
2023/09/06 09:47:12;;;;;;;1.65;1.50;;;;;;;21.75;62.12;101965.06;4989925;28;20044;-53
2023/09/06 09:49:40;;;;;;;1.48;1.38;;;;;;;21.75;62.12;101971.34;4989392;28;20415;-54
2023/09/06 09:52:12;;;;;;;1.45;1.35;;;;;;;21.77;62.11;101965.78;4988315;28;20034;-54
2023/09/06 09:54:41;;;;;;;1.50;1.40;;;;;;;21.75;62.22;101954.22;4987632;28;20030;-54
2023/09/06 09:57:08;;;;;;;1.73;1.63;;;;;;;21.76;61.79;101966.75;4988297;28;20120;-51
2023/09/06 09:59:36;;;;;;;1.33;1.23;;;;;;;21.77;62.19;101963.91;4987958;28;20041;-54
2023/09/06 10:02:04;;;;;;;1.55;1.45;;;;;;;21.76;62.06;101964.06;4988349;28;20044;-54
2023/09/06 10:04:30;;;;;;;1.30;1.20;;;;;;;21.78;62.19;101968.34;4988825;28;20023;-53
2023/09/06 10:06:55;;;;;;;1.80;1.70;;;;;;;21.77;62.26;101966.63;4988232;28;20085;-54
2023/09/06 10:09:22;;;;;;;1.55;1.45;;;;;;;21.79;62.34;101967.34;4988112;28;20022;-54
2023/09/06 10:11:50;;;;;;;1.92;1.70;;;;;;;21.78;62.13;101962.94;4987312;28;20443;-53
2023/09/06 10:14:18;;;;;;;2.05;1.52;;;;;;;21.79;62.23;101955.66;4986915;28;20069;-53
2023/09/06 10:16:44;;;;;;;1.60;1.50;;;;;;;21.80;62.23;101962.75;4987150;28;20484;-54
2023/09/06 10:19:11;;;;;;;2.35;1.75;;;;;;;21.80;61.98;101952.78;4986850;28;20087;-54
2023/09/06 10:21:38;;;;;;;1.80;1.60;;;;;;;21.80;62.17;101952.78;4993527;28;20026;-54
2023/09/06 10:24:15;;;;;;;1.95;1.67;;;;;;;21.80;61.54;101958.22;4994883;28;20468;-54
2023/09/06 10:26:43;;;;;;;3.20;1.70;;;;;;;21.80;61.91;101947.38;4991305;28;20034;-53
2023/09/06 10:29:11;;;;;;;2.25;1.85;;;;;;;21.81;61.70;101948.22;4985486;28;20030;-53
2023/09/06 10:31:51;;;;;;;1.60;1.50;;;;;;;21.81;62.10;101954.50;4988030;28;20034;-54
2023/09/06 10:34:16;;;;;;;1.50;1.30;;;;;;;21.81;62.19;101949.06;4987692;28;20041;-54
2023/09/06 10:36:54;;;;;;;1.60;1.50;;;;;;;21.82;61.92;101942.66;4987778;28;20393;-53
2023/09/06 10:39:22;;;;;;;2.10;1.60;;;;;;;21.82;62.20;101948.09;4989448;28;20022;-54
2023/09/06 10:42:13;;;;;;;1.60;1.50;;;;;;;21.86;62.36;101954.06;4987492;28;20437;-54
2023/09/06 10:44:54;;;;;;;1.52;1.42;;;;;;;21.85;61.92;101942.34;4983378;28;20078;-54
2023/09/06 10:47:27;;;;;;;1.53;1.43;;;;;;;21.85;61.96;101939.63;4986520;28;20089;-54
2023/09/06 10:50:15;;;;;;;1.48;1.38;;;;;;;21.86;61.93;101940.50;4987329;28;20335;-54
2023/09/06 10:52:57;;;;;;;1.50;1.40;;;;;;;21.84;62.18;101940.66;4988083;28;20384;-54
2023/09/06 10:55:27;;;;;;;2.00;1.42;;;;;;;21.86;62.06;101938.66;4985099;28;20073;-54
2023/09/06 10:57:56;;;;;;;1.73;1.60;;;;;;;21.86;62.26;101935.94;4989790;28;20050;-54
2023/09/06 11:00:27;;;;;;;1.70;1.60;;;;;;;21.86;61.91;101938.66;4992492;28;20546;-54
2023/09/06 11:03:08;;;;;;;1.13;1.08;;;;;;;21.88;62.03;101938.50;4989819;28;20031;-54
2023/09/06 11:05:38;;;;;;;1.90;1.80;;;;;;;21.88;61.90;101937.66;4992233;28;20065;-54
2023/09/06 11:08:06;;;;;;;1.75;1.63;;;;;;;21.88;62.37;101932.25;4992180;28;20030;-54
2023/09/06 11:10:31;;;;;;;1.50;1.40;;;;;;;21.88;61.90;101934.97;4991658;28;20044;-54
2023/09/06 11:13:07;;;;;;;1.58;1.48;;;;;;;21.89;62.30;101933.94;4990199;28;20117;-54
2023/09/06 11:15:36;;;;;;;1.80;1.50;;;;;;;21.89;62.07;101929.34;4989770;28;20053;-54
2023/09/06 11:18:02;;;;;;;1.60;1.50;;;;;;;21.90;61.96;101933.78;4992215;28;20045;-54
2023/09/06 11:20:29;;;;;;;1.98;1.70;;;;;;;21.90;62.01;101928.38;4992085;28;20042;-54
2023/09/06 11:23:01;;;;;;;2.40;1.80;;;;;;;21.90;61.89;101928.38;4989746;28;20053;-54
2023/09/06 11:25:34;;;;;;;1.98;1.77;;;;;;;21.91;62.23;101932.78;4990371;28;20476;-54
2023/09/06 11:28:13;;;;;;;1.85;1.70;;;;;;;21.91;62.13;101927.34;4989457;28;20058;-54